sensor_id;sensor_type;location;lat;lon;timestamp;P1;durP1;ratioP1;P2;durP2;ratioP2
45198;SDS011;30941;46.422;18.772;2023-05-07T00:00:52;22.17;;;15.23;;
45198;SDS011;30941;46.422;18.772;2023-05-07T00:03:17;17.73;;;14.65;;
45198;SDS011;30941;46.422;18.772;2023-05-07T00:05:44;15.57;;;13.73;;
45198;SDS011;30941;46.422;18.772;2023-05-07T00:08:09;19.13;;;15.63;;
45198;SDS011;30941;46.422;18.772;2023-05-07T00:10:35;17.10;;;14.07;;
45198;SDS011;30941;46.422;18.772;2023-05-07T00:13:00;18.10;;;14.85;;
45198;SDS011;30941;46.422;18.772;2023-05-07T00:15:25;18.58;;;14.68;;
45198;SDS011;30941;46.422;18.772;2023-05-07T00:17:51;19.60;;;15.13;;
45198;SDS011;30941;46.422;18.772;2023-05-07T00:20:16;19.73;;;14.77;;
45198;SDS011;30941;46.422;18.772;2023-05-07T00:22:42;19.40;;;14.15;;
45198;SDS011;30941;46.422;18.772;2023-05-07T00:25:07;18.08;;;14.88;;
45198;SDS011;30941;46.422;18.772;2023-05-07T00:27:33;17.92;;;14.95;;
45198;SDS011;30941;46.422;18.772;2023-05-07T00:29:58;19.85;;;14.52;;
45198;SDS011;30941;46.422;18.772;2023-05-07T00:32:23;20.08;;;15.25;;
45198;SDS011;30941;46.422;18.772;2023-05-07T00:34:49;22.25;;;16.35;;
45198;SDS011;30941;46.422;18.772;2023-05-07T00:37:15;20.20;;;14.90;;
45198;SDS011;30941;46.422;18.772;2023-05-07T00:39:41;20.70;;;14.00;;
45198;SDS011;30941;46.422;18.772;2023-05-07T00:42:06;21.38;;;15.95;;
45198;SDS011;30941;46.422;18.772;2023-05-07T00:44:33;18.75;;;14.40;;
45198;SDS011;30941;46.422;18.772;2023-05-07T00:46:58;16.73;;;14.93;;
45198;SDS011;30941;46.422;18.772;2023-05-07T00:49:30;20.33;;;15.18;;
45198;SDS011;30941;46.422;18.772;2023-05-07T00:52:02;23.38;;;14.50;;
45198;SDS011;30941;46.422;18.772;2023-05-07T00:54:28;19.20;;;14.82;;
45198;SDS011;30941;46.422;18.772;2023-05-07T00:56:53;18.25;;;14.90;;
45198;SDS011;30941;46.422;18.772;2023-05-07T00:59:19;19.85;;;15.13;;
45198;SDS011;30941;46.422;18.772;2023-05-07T01:01:45;19.48;;;15.70;;
45198;SDS011;30941;46.422;18.772;2023-05-07T01:04:10;20.73;;;16.20;;
45198;SDS011;30941;46.422;18.772;2023-05-07T01:06:35;19.30;;;14.88;;
45198;SDS011;30941;46.422;18.772;2023-05-07T01:09:01;21.65;;;15.02;;
45198;SDS011;30941;46.422;18.772;2023-05-07T01:11:27;20.95;;;15.13;;
45198;SDS011;30941;46.422;18.772;2023-05-07T01:13:53;20.05;;;14.90;;
45198;SDS011;30941;46.422;18.772;2023-05-07T01:16:18;21.65;;;15.93;;
45198;SDS011;30941;46.422;18.772;2023-05-07T01:18:44;23.10;;;15.60;;
45198;SDS011;30941;46.422;18.772;2023-05-07T01:21:12;22.55;;;15.60;;
45198;SDS011;30941;46.422;18.772;2023-05-07T01:23:39;22.23;;;15.48;;
45198;SDS011;30941;46.422;18.772;2023-05-07T01:26:04;20.15;;;16.65;;
45198;SDS011;30941;46.422;18.772;2023-05-07T01:28:30;21.38;;;15.65;;
45198;SDS011;30941;46.422;18.772;2023-05-07T01:30:58;22.80;;;17.73;;
45198;SDS011;30941;46.422;18.772;2023-05-07T01:33:26;20.35;;;15.73;;
45198;SDS011;30941;46.422;18.772;2023-05-07T01:35:53;21.40;;;16.13;;
45198;SDS011;30941;46.422;18.772;2023-05-07T01:38:19;20.98;;;16.15;;
45198;SDS011;30941;46.422;18.772;2023-05-07T01:40:45;23.05;;;16.20;;
45198;SDS011;30941;46.422;18.772;2023-05-07T01:43:11;22.02;;;16.38;;
45198;SDS011;30941;46.422;18.772;2023-05-07T01:45:37;27.27;;;16.80;;
45198;SDS011;30941;46.422;18.772;2023-05-07T01:48:03;21.40;;;15.52;;
45198;SDS011;30941;46.422;18.772;2023-05-07T01:50:29;22.55;;;17.38;;
45198;SDS011;30941;46.422;18.772;2023-05-07T01:52:55;24.38;;;16.65;;
45198;SDS011;30941;46.422;18.772;2023-05-07T01:55:21;21.05;;;16.70;;
45198;SDS011;30941;46.422;18.772;2023-05-07T01:57:46;22.95;;;15.73;;
45198;SDS011;30941;46.422;18.772;2023-05-07T02:00:12;23.30;;;15.45;;
45198;SDS011;30941;46.422;18.772;2023-05-07T02:02:37;21.23;;;15.73;;
45198;SDS011;30941;46.422;18.772;2023-05-07T02:05:03;19.73;;;16.33;;
45198;SDS011;30941;46.422;18.772;2023-05-07T02:07:29;20.00;;;16.10;;
45198;SDS011;30941;46.422;18.772;2023-05-07T02:09:54;19.02;;;15.30;;
45198;SDS011;30941;46.422;18.772;2023-05-07T02:12:20;21.08;;;15.75;;
45198;SDS011;30941;46.422;18.772;2023-05-07T02:14:46;22.83;;;16.67;;
45198;SDS011;30941;46.422;18.772;2023-05-07T02:17:11;18.65;;;15.52;;
45198;SDS011;30941;46.422;18.772;2023-05-07T02:19:37;21.50;;;16.10;;
45198;SDS011;30941;46.422;18.772;2023-05-07T02:22:02;23.08;;;15.90;;
45198;SDS011;30941;46.422;18.772;2023-05-07T02:24:27;20.20;;;15.20;;
45198;SDS011;30941;46.422;18.772;2023-05-07T02:26:53;22.70;;;17.02;;
45198;SDS011;30941;46.422;18.772;2023-05-07T02:29:18;23.10;;;16.77;;
45198;SDS011;30941;46.422;18.772;2023-05-07T02:31:44;19.63;;;15.68;;
45198;SDS011;30941;46.422;18.772;2023-05-07T02:34:09;22.63;;;17.02;;
45198;SDS011;30941;46.422;18.772;2023-05-07T02:36:35;22.42;;;16.80;;
45198;SDS011;30941;46.422;18.772;2023-05-07T02:39:00;22.30;;;15.88;;
45198;SDS011;30941;46.422;18.772;2023-05-07T02:41:26;23.02;;;15.73;;
45198;SDS011;30941;46.422;18.772;2023-05-07T02:43:53;24.65;;;16.58;;
45198;SDS011;30941;46.422;18.772;2023-05-07T02:46:18;18.48;;;14.73;;
45198;SDS011;30941;46.422;18.772;2023-05-07T02:48:43;21.33;;;16.50;;
45198;SDS011;30941;46.422;18.772;2023-05-07T02:51:09;23.50;;;15.95;;
45198;SDS011;30941;46.422;18.772;2023-05-07T02:53:34;26.17;;;17.52;;
45198;SDS011;30941;46.422;18.772;2023-05-07T02:56:00;21.10;;;16.70;;
45198;SDS011;30941;46.422;18.772;2023-05-07T02:58:26;20.55;;;15.60;;
45198;SDS011;30941;46.422;18.772;2023-05-07T03:00:52;24.52;;;15.95;;
45198;SDS011;30941;46.422;18.772;2023-05-07T03:03:19;23.13;;;16.63;;
45198;SDS011;30941;46.422;18.772;2023-05-07T03:05:45;20.10;;;15.48;;
45198;SDS011;30941;46.422;18.772;2023-05-07T03:08:10;20.70;;;16.30;;
45198;SDS011;30941;46.422;18.772;2023-05-07T03:10:36;22.05;;;15.77;;
45198;SDS011;30941;46.422;18.772;2023-05-07T03:13:02;21.85;;;15.63;;
45198;SDS011;30941;46.422;18.772;2023-05-07T03:15:27;22.50;;;16.58;;
45198;SDS011;30941;46.422;18.772;2023-05-07T03:17:53;25.02;;;17.10;;
45198;SDS011;30941;46.422;18.772;2023-05-07T03:20:18;21.75;;;15.98;;
45198;SDS011;30941;46.422;18.772;2023-05-07T03:22:43;22.25;;;15.93;;
45198;SDS011;30941;46.422;18.772;2023-05-07T03:25:09;23.58;;;16.77;;
45198;SDS011;30941;46.422;18.772;2023-05-07T03:27:34;21.08;;;16.73;;
45198;SDS011;30941;46.422;18.772;2023-05-07T03:30:00;21.23;;;16.52;;
45198;SDS011;30941;46.422;18.772;2023-05-07T03:32:25;23.88;;;17.13;;
45198;SDS011;30941;46.422;18.772;2023-05-07T03:34:51;22.42;;;16.85;;
45198;SDS011;30941;46.422;18.772;2023-05-07T03:37:16;21.83;;;17.52;;
45198;SDS011;30941;46.422;18.772;2023-05-07T03:39:43;22.90;;;18.17;;
45198;SDS011;30941;46.422;18.772;2023-05-07T03:42:08;21.08;;;16.98;;
45198;SDS011;30941;46.422;18.772;2023-05-07T03:44:34;22.70;;;16.92;;
45198;SDS011;30941;46.422;18.772;2023-05-07T03:47:01;22.38;;;17.13;;
45198;SDS011;30941;46.422;18.772;2023-05-07T03:49:26;20.88;;;16.08;;
45198;SDS011;30941;46.422;18.772;2023-05-07T03:51:52;24.08;;;16.80;;
45198;SDS011;30941;46.422;18.772;2023-05-07T03:54:17;20.20;;;16.50;;
45198;SDS011;30941;46.422;18.772;2023-05-07T03:56:42;27.55;;;18.80;;
45198;SDS011;30941;46.422;18.772;2023-05-07T03:59:08;22.00;;;16.88;;
45198;SDS011;30941;46.422;18.772;2023-05-07T04:01:33;22.35;;;17.98;;
45198;SDS011;30941;46.422;18.772;2023-05-07T04:03:58;27.00;;;18.77;;
45198;SDS011;30941;46.422;18.772;2023-05-07T04:06:24;23.23;;;18.42;;
45198;SDS011;30941;46.422;18.772;2023-05-07T04:08:49;27.15;;;19.98;;
45198;SDS011;30941;46.422;18.772;2023-05-07T04:11:15;24.38;;;19.90;;
45198;SDS011;30941;46.422;18.772;2023-05-07T04:13:40;27.52;;;20.05;;
45198;SDS011;30941;46.422;18.772;2023-05-07T04:16:05;24.83;;;19.98;;
45198;SDS011;30941;46.422;18.772;2023-05-07T04:18:31;32.20;;;20.95;;
45198;SDS011;30941;46.422;18.772;2023-05-07T04:20:56;26.67;;;18.83;;
45198;SDS011;30941;46.422;18.772;2023-05-07T04:23:22;25.65;;;19.90;;
45198;SDS011;30941;46.422;18.772;2023-05-07T04:25:47;26.25;;;19.90;;
45198;SDS011;30941;46.422;18.772;2023-05-07T04:28:13;26.92;;;20.35;;
45198;SDS011;30941;46.422;18.772;2023-05-07T04:30:39;26.27;;;20.52;;
45198;SDS011;30941;46.422;18.772;2023-05-07T04:33:04;35.35;;;21.40;;
45198;SDS011;30941;46.422;18.772;2023-05-07T04:35:31;28.08;;;21.45;;
45198;SDS011;30941;46.422;18.772;2023-05-07T04:37:57;28.25;;;21.20;;
45198;SDS011;30941;46.422;18.772;2023-05-07T04:40:22;30.63;;;22.73;;
45198;SDS011;30941;46.422;18.772;2023-05-07T04:42:48;28.80;;;21.33;;
45198;SDS011;30941;46.422;18.772;2023-05-07T04:45:13;31.83;;;23.63;;
45198;SDS011;30941;46.422;18.772;2023-05-07T04:47:38;25.58;;;21.50;;
45198;SDS011;30941;46.422;18.772;2023-05-07T04:50:05;27.25;;;21.50;;
45198;SDS011;30941;46.422;18.772;2023-05-07T04:52:31;32.63;;;22.50;;
45198;SDS011;30941;46.422;18.772;2023-05-07T04:54:58;29.60;;;22.67;;
45198;SDS011;30941;46.422;18.772;2023-05-07T04:57:24;30.27;;;23.30;;
45198;SDS011;30941;46.422;18.772;2023-05-07T04:59:50;31.45;;;23.77;;
45198;SDS011;30941;46.422;18.772;2023-05-07T05:02:15;29.65;;;22.38;;
45198;SDS011;30941;46.422;18.772;2023-05-07T05:04:41;27.83;;;21.30;;
45198;SDS011;30941;46.422;18.772;2023-05-07T05:07:06;28.27;;;21.20;;
45198;SDS011;30941;46.422;18.772;2023-05-07T05:09:32;26.98;;;21.02;;
45198;SDS011;30941;46.422;18.772;2023-05-07T05:11:57;29.42;;;21.13;;
45198;SDS011;30941;46.422;18.772;2023-05-07T05:14:22;27.35;;;21.42;;
45198;SDS011;30941;46.422;18.772;2023-05-07T05:16:48;28.40;;;21.52;;
45198;SDS011;30941;46.422;18.772;2023-05-07T05:19:13;26.50;;;20.08;;
45198;SDS011;30941;46.422;18.772;2023-05-07T05:21:39;29.33;;;23.23;;
45198;SDS011;30941;46.422;18.772;2023-05-07T05:24:04;35.22;;;25.05;;
45198;SDS011;30941;46.422;18.772;2023-05-07T05:26:30;27.73;;;21.17;;
45198;SDS011;30941;46.422;18.772;2023-05-07T05:28:55;28.00;;;22.38;;
45198;SDS011;30941;46.422;18.772;2023-05-07T05:31:21;28.23;;;22.33;;
45198;SDS011;30941;46.422;18.772;2023-05-07T05:33:46;26.40;;;20.30;;
45198;SDS011;30941;46.422;18.772;2023-05-07T05:36:11;24.98;;;19.85;;
45198;SDS011;30941;46.422;18.772;2023-05-07T05:38:38;22.33;;;19.17;;
45198;SDS011;30941;46.422;18.772;2023-05-07T05:41:04;25.67;;;20.15;;
45198;SDS011;30941;46.422;18.772;2023-05-07T05:43:29;26.33;;;20.20;;
45198;SDS011;30941;46.422;18.772;2023-05-07T05:45:55;23.48;;;19.40;;
45198;SDS011;30941;46.422;18.772;2023-05-07T05:48:21;22.90;;;18.60;;
45198;SDS011;30941;46.422;18.772;2023-05-07T05:50:46;20.88;;;17.45;;
45198;SDS011;30941;46.422;18.772;2023-05-07T05:53:11;22.77;;;17.63;;
45198;SDS011;30941;46.422;18.772;2023-05-07T05:55:37;21.00;;;16.67;;
45198;SDS011;30941;46.422;18.772;2023-05-07T05:58:02;22.85;;;16.95;;
45198;SDS011;30941;46.422;18.772;2023-05-07T06:00:28;17.83;;;15.90;;
45198;SDS011;30941;46.422;18.772;2023-05-07T06:02:54;19.55;;;15.82;;
45198;SDS011;30941;46.422;18.772;2023-05-07T06:05:19;19.40;;;16.15;;
45198;SDS011;30941;46.422;18.772;2023-05-07T06:07:45;20.10;;;15.38;;
45198;SDS011;30941;46.422;18.772;2023-05-07T06:10:10;19.05;;;14.75;;
45198;SDS011;30941;46.422;18.772;2023-05-07T06:12:35;18.60;;;15.60;;
45198;SDS011;30941;46.422;18.772;2023-05-07T06:15:01;20.08;;;16.02;;
45198;SDS011;30941;46.422;18.772;2023-05-07T06:17:26;19.20;;;14.75;;
45198;SDS011;30941;46.422;18.772;2023-05-07T06:19:52;22.33;;;14.75;;
45198;SDS011;30941;46.422;18.772;2023-05-07T06:22:17;16.95;;;14.07;;
45198;SDS011;30941;46.422;18.772;2023-05-07T06:24:43;18.27;;;14.15;;
45198;SDS011;30941;46.422;18.772;2023-05-07T06:27:08;17.00;;;13.30;;
45198;SDS011;30941;46.422;18.772;2023-05-07T06:29:33;18.60;;;14.88;;
45198;SDS011;30941;46.422;18.772;2023-05-07T06:32:06;15.00;;;12.93;;
45198;SDS011;30941;46.422;18.772;2023-05-07T06:34:32;20.00;;;14.85;;
45198;SDS011;30941;46.422;18.772;2023-05-07T06:36:58;19.17;;;13.18;;
45198;SDS011;30941;46.422;18.772;2023-05-07T06:39:23;15.30;;;13.63;;
45198;SDS011;30941;46.422;18.772;2023-05-07T06:41:49;14.20;;;12.70;;
45198;SDS011;30941;46.422;18.772;2023-05-07T06:44:14;15.25;;;13.45;;
45198;SDS011;30941;46.422;18.772;2023-05-07T06:46:40;18.65;;;12.63;;
45198;SDS011;30941;46.422;18.772;2023-05-07T06:49:05;16.35;;;12.75;;
45198;SDS011;30941;46.422;18.772;2023-05-07T06:51:31;17.45;;;12.50;;
45198;SDS011;30941;46.422;18.772;2023-05-07T06:53:56;14.80;;;12.07;;
45198;SDS011;30941;46.422;18.772;2023-05-07T06:56:22;15.48;;;11.32;;
45198;SDS011;30941;46.422;18.772;2023-05-07T06:58:47;14.00;;;10.77;;
45198;SDS011;30941;46.422;18.772;2023-05-07T07:01:13;14.88;;;11.95;;
45198;SDS011;30941;46.422;18.772;2023-05-07T07:03:38;17.00;;;13.07;;
45198;SDS011;30941;46.422;18.772;2023-05-07T07:06:03;15.80;;;11.05;;
45198;SDS011;30941;46.422;18.772;2023-05-07T07:08:29;12.07;;;10.75;;
45198;SDS011;30941;46.422;18.772;2023-05-07T07:10:54;12.13;;;10.50;;
45198;SDS011;30941;46.422;18.772;2023-05-07T07:13:20;13.20;;;10.73;;
45198;SDS011;30941;46.422;18.772;2023-05-07T07:15:45;12.82;;;10.45;;
45198;SDS011;30941;46.422;18.772;2023-05-07T07:18:11;10.60;;;9.30;;
45198;SDS011;30941;46.422;18.772;2023-05-07T07:20:36;13.50;;;10.68;;
45198;SDS011;30941;46.422;18.772;2023-05-07T07:23:02;14.48;;;9.85;;
45198;SDS011;30941;46.422;18.772;2023-05-07T07:25:27;11.10;;;9.90;;
45198;SDS011;30941;46.422;18.772;2023-05-07T07:27:52;12.10;;;10.63;;
45198;SDS011;30941;46.422;18.772;2023-05-07T07:30:18;12.13;;;10.80;;
45198;SDS011;30941;46.422;18.772;2023-05-07T07:32:43;12.73;;;10.25;;
45198;SDS011;30941;46.422;18.772;2023-05-07T07:35:09;14.88;;;11.07;;
45198;SDS011;30941;46.422;18.772;2023-05-07T07:37:34;11.40;;;10.10;;
45198;SDS011;30941;46.422;18.772;2023-05-07T07:40:00;12.63;;;10.73;;
45198;SDS011;30941;46.422;18.772;2023-05-07T07:42:25;15.98;;;10.90;;
45198;SDS011;30941;46.422;18.772;2023-05-07T07:44:51;11.73;;;10.52;;
45198;SDS011;30941;46.422;18.772;2023-05-07T07:47:17;12.05;;;10.40;;
45198;SDS011;30941;46.422;18.772;2023-05-07T07:49:42;13.63;;;9.27;;
45198;SDS011;30941;46.422;18.772;2023-05-07T07:52:07;16.73;;;9.43;;
45198;SDS011;30941;46.422;18.772;2023-05-07T07:54:33;14.93;;;10.38;;
45198;SDS011;30941;46.422;18.772;2023-05-07T07:56:58;10.75;;;9.65;;
45198;SDS011;30941;46.422;18.772;2023-05-07T07:59:24;11.95;;;9.80;;
45198;SDS011;30941;46.422;18.772;2023-05-07T08:01:49;14.35;;;9.07;;
45198;SDS011;30941;46.422;18.772;2023-05-07T08:04:15;11.38;;;9.55;;
45198;SDS011;30941;46.422;18.772;2023-05-07T08:06:41;10.43;;;9.32;;
45198;SDS011;30941;46.422;18.772;2023-05-07T08:09:07;10.35;;;9.32;;
45198;SDS011;30941;46.422;18.772;2023-05-07T08:11:33;10.23;;;9.13;;
45198;SDS011;30941;46.422;18.772;2023-05-07T08:13:58;9.73;;;8.32;;
45198;SDS011;30941;46.422;18.772;2023-05-07T08:16:24;9.88;;;8.88;;
45198;SDS011;30941;46.422;18.772;2023-05-07T08:18:50;10.90;;;8.55;;
45198;SDS011;30941;46.422;18.772;2023-05-07T08:21:15;11.40;;;9.07;;
45198;SDS011;30941;46.422;18.772;2023-05-07T08:23:41;12.40;;;8.45;;
45198;SDS011;30941;46.422;18.772;2023-05-07T08:26:07;13.45;;;8.77;;
45198;SDS011;30941;46.422;18.772;2023-05-07T08:28:33;10.40;;;7.97;;
45198;SDS011;30941;46.422;18.772;2023-05-07T08:30:58;9.32;;;7.38;;
45198;SDS011;30941;46.422;18.772;2023-05-07T08:33:25;11.85;;;7.40;;
45198;SDS011;30941;46.422;18.772;2023-05-07T08:35:51;8.43;;;7.40;;
45198;SDS011;30941;46.422;18.772;2023-05-07T08:38:16;8.98;;;7.45;;
45198;SDS011;30941;46.422;18.772;2023-05-07T08:40:42;8.68;;;7.35;;
45198;SDS011;30941;46.422;18.772;2023-05-07T08:43:07;7.70;;;6.10;;
45198;SDS011;30941;46.422;18.772;2023-05-07T08:45:34;8.68;;;5.88;;
45198;SDS011;30941;46.422;18.772;2023-05-07T08:48:01;8.02;;;5.75;;
45198;SDS011;30941;46.422;18.772;2023-05-07T08:50:28;5.32;;;4.57;;
45198;SDS011;30941;46.422;18.772;2023-05-07T08:52:53;5.20;;;3.50;;
45198;SDS011;30941;46.422;18.772;2023-05-07T08:55:19;5.95;;;4.63;;
45198;SDS011;30941;46.422;18.772;2023-05-07T08:57:45;5.45;;;4.70;;
45198;SDS011;30941;46.422;18.772;2023-05-07T09:00:12;7.57;;;4.60;;
45198;SDS011;30941;46.422;18.772;2023-05-07T09:02:38;8.45;;;4.80;;
45198;SDS011;30941;46.422;18.772;2023-05-07T09:05:03;8.05;;;5.15;;
45198;SDS011;30941;46.422;18.772;2023-05-07T09:07:29;8.20;;;5.43;;
45198;SDS011;30941;46.422;18.772;2023-05-07T09:09:55;8.23;;;6.95;;
45198;SDS011;30941;46.422;18.772;2023-05-07T09:12:22;8.65;;;7.28;;
45198;SDS011;30941;46.422;18.772;2023-05-07T09:14:47;9.68;;;7.55;;
45198;SDS011;30941;46.422;18.772;2023-05-07T09:17:13;8.10;;;7.28;;
45198;SDS011;30941;46.422;18.772;2023-05-07T09:19:40;10.80;;;7.97;;
45198;SDS011;30941;46.422;18.772;2023-05-07T09:22:05;9.25;;;8.30;;
45198;SDS011;30941;46.422;18.772;2023-05-07T09:24:34;11.30;;;8.73;;
45198;SDS011;30941;46.422;18.772;2023-05-07T09:27:02;9.52;;;8.52;;
45198;SDS011;30941;46.422;18.772;2023-05-07T09:29:28;10.90;;;9.45;;
45198;SDS011;30941;46.422;18.772;2023-05-07T09:31:55;13.90;;;10.52;;
45198;SDS011;30941;46.422;18.772;2023-05-07T09:34:21;13.82;;;9.98;;
45198;SDS011;30941;46.422;18.772;2023-05-07T09:36:47;12.00;;;9.10;;
45198;SDS011;30941;46.422;18.772;2023-05-07T09:39:12;9.98;;;7.53;;
45198;SDS011;30941;46.422;18.772;2023-05-07T09:41:44;9.20;;;7.85;;
45198;SDS011;30941;46.422;18.772;2023-05-07T09:44:11;8.98;;;7.50;;
45198;SDS011;30941;46.422;18.772;2023-05-07T09:46:36;8.95;;;7.50;;
45198;SDS011;30941;46.422;18.772;2023-05-07T09:49:03;8.73;;;6.80;;
45198;SDS011;30941;46.422;18.772;2023-05-07T09:51:35;9.98;;;6.18;;
45198;SDS011;30941;46.422;18.772;2023-05-07T09:54:04;10.27;;;7.18;;
45198;SDS011;30941;46.422;18.772;2023-05-07T09:56:30;8.88;;;6.63;;
45198;SDS011;30941;46.422;18.772;2023-05-07T09:58:57;10.15;;;6.93;;
45198;SDS011;30941;46.422;18.772;2023-05-07T10:01:25;8.73;;;6.85;;
45198;SDS011;30941;46.422;18.772;2023-05-07T10:03:51;8.40;;;7.22;;
45198;SDS011;30941;46.422;18.772;2023-05-07T10:06:16;8.90;;;6.65;;
45198;SDS011;30941;46.422;18.772;2023-05-07T10:08:42;8.45;;;6.65;;
45198;SDS011;30941;46.422;18.772;2023-05-07T10:11:08;7.18;;;6.10;;
45198;SDS011;30941;46.422;18.772;2023-05-07T10:13:34;7.40;;;5.65;;
45198;SDS011;30941;46.422;18.772;2023-05-07T10:16:01;7.55;;;5.95;;
45198;SDS011;30941;46.422;18.772;2023-05-07T10:18:28;8.88;;;6.07;;
45198;SDS011;30941;46.422;18.772;2023-05-07T10:21:01;7.43;;;6.00;;
45198;SDS011;30941;46.422;18.772;2023-05-07T10:23:30;10.07;;;7.18;;
45198;SDS011;30941;46.422;18.772;2023-05-07T10:25:56;7.55;;;6.15;;
45198;SDS011;30941;46.422;18.772;2023-05-07T10:28:21;8.00;;;5.80;;
45198;SDS011;30941;46.422;18.772;2023-05-07T10:33:19;9.35;;;5.20;;
45198;SDS011;30941;46.422;18.772;2023-05-07T10:35:48;7.35;;;4.57;;
45198;SDS011;30941;46.422;18.772;2023-05-07T10:38:14;5.88;;;4.43;;
45198;SDS011;30941;46.422;18.772;2023-05-07T10:40:39;4.70;;;3.70;;
45198;SDS011;30941;46.422;18.772;2023-05-07T10:43:05;5.30;;;4.07;;
45198;SDS011;30941;46.422;18.772;2023-05-07T10:45:31;6.47;;;5.60;;
45198;SDS011;30941;46.422;18.772;2023-05-07T10:48:06;7.38;;;5.95;;
45198;SDS011;30941;46.422;18.772;2023-05-07T10:50:38;9.30;;;5.80;;
45198;SDS011;30941;46.422;18.772;2023-05-07T10:53:20;6.32;;;5.18;;
45198;SDS011;30941;46.422;18.772;2023-05-07T10:55:49;7.80;;;5.07;;
45198;SDS011;30941;46.422;18.772;2023-05-07T10:58:25;6.07;;;4.50;;
45198;SDS011;30941;46.422;18.772;2023-05-07T11:00:57;5.97;;;3.92;;
45198;SDS011;30941;46.422;18.772;2023-05-07T11:03:26;8.10;;;5.35;;
45198;SDS011;30941;46.422;18.772;2023-05-07T11:06:08;6.00;;;4.78;;
45198;SDS011;30941;46.422;18.772;2023-05-07T11:11:17;4.53;;;3.92;;
45198;SDS011;30941;46.422;18.772;2023-05-07T11:13:45;5.28;;;4.55;;
45198;SDS011;30941;46.422;18.772;2023-05-07T11:24:13;5.55;;;3.92;;
45198;SDS011;30941;46.422;18.772;2023-05-07T11:26:44;5.88;;;4.72;;
45198;SDS011;30941;46.422;18.772;2023-05-07T11:29:17;5.60;;;3.80;;
45198;SDS011;30941;46.422;18.772;2023-05-07T11:31:43;5.20;;;4.03;;
45198;SDS011;30941;46.422;18.772;2023-05-07T11:34:09;5.35;;;4.13;;
45198;SDS011;30941;46.422;18.772;2023-05-07T11:36:36;4.95;;;3.50;;
45198;SDS011;30941;46.422;18.772;2023-05-07T11:39:22;4.45;;;3.60;;
45198;SDS011;30941;46.422;18.772;2023-05-07T11:41:54;5.97;;;3.65;;
45198;SDS011;30941;46.422;18.772;2023-05-07T11:44:19;4.85;;;3.85;;
45198;SDS011;30941;46.422;18.772;2023-05-07T11:46:45;5.82;;;4.18;;
45198;SDS011;30941;46.422;18.772;2023-05-07T11:49:10;5.25;;;3.53;;
45198;SDS011;30941;46.422;18.772;2023-05-07T11:51:36;4.93;;;3.78;;
45198;SDS011;30941;46.422;18.772;2023-05-07T11:54:03;7.43;;;3.65;;
45198;SDS011;30941;46.422;18.772;2023-05-07T11:56:28;4.75;;;3.40;;
45198;SDS011;30941;46.422;18.772;2023-05-07T11:58:54;5.75;;;3.58;;
45198;SDS011;30941;46.422;18.772;2023-05-07T12:01:19;6.95;;;3.90;;
45198;SDS011;30941;46.422;18.772;2023-05-07T12:03:45;4.60;;;3.75;;
45198;SDS011;30941;46.422;18.772;2023-05-07T12:06:11;4.97;;;3.72;;
45198;SDS011;30941;46.422;18.772;2023-05-07T12:08:38;3.92;;;3.30;;
45198;SDS011;30941;46.422;18.772;2023-05-07T12:11:06;4.82;;;3.58;;
45198;SDS011;30941;46.422;18.772;2023-05-07T12:13:33;4.55;;;3.50;;
45198;SDS011;30941;46.422;18.772;2023-05-07T12:15:59;4.20;;;3.30;;
45198;SDS011;30941;46.422;18.772;2023-05-07T12:18:24;4.03;;;3.40;;
45198;SDS011;30941;46.422;18.772;2023-05-07T12:20:50;4.95;;;3.60;;
45198;SDS011;30941;46.422;18.772;2023-05-07T12:23:16;6.05;;;3.90;;
45198;SDS011;30941;46.422;18.772;2023-05-07T12:25:42;7.68;;;4.43;;
45198;SDS011;30941;46.422;18.772;2023-05-07T12:28:17;4.72;;;3.75;;
45198;SDS011;30941;46.422;18.772;2023-05-07T12:30:44;5.53;;;4.22;;
45198;SDS011;30941;46.422;18.772;2023-05-07T12:33:11;4.53;;;3.90;;
45198;SDS011;30941;46.422;18.772;2023-05-07T12:35:37;7.43;;;3.80;;
45198;SDS011;30941;46.422;18.772;2023-05-07T12:38:07;5.63;;;4.00;;
45198;SDS011;30941;46.422;18.772;2023-05-07T12:40:37;5.35;;;3.95;;
45198;SDS011;30941;46.422;18.772;2023-05-07T12:43:03;5.18;;;4.07;;
45198;SDS011;30941;46.422;18.772;2023-05-07T12:45:29;5.05;;;4.20;;
45198;SDS011;30941;46.422;18.772;2023-05-07T12:47:54;5.07;;;4.30;;
45198;SDS011;30941;46.422;18.772;2023-05-07T12:50:20;7.50;;;4.32;;
45198;SDS011;30941;46.422;18.772;2023-05-07T12:52:48;4.95;;;3.90;;
45198;SDS011;30941;46.422;18.772;2023-05-07T12:55:14;6.38;;;4.00;;
45198;SDS011;30941;46.422;18.772;2023-05-07T12:58:00;9.77;;;4.28;;
45198;SDS011;30941;46.422;18.772;2023-05-07T13:00:33;6.78;;;4.78;;
45198;SDS011;30941;46.422;18.772;2023-05-07T13:02:59;5.78;;;4.07;;
45198;SDS011;30941;46.422;18.772;2023-05-07T13:05:24;5.90;;;3.80;;
45198;SDS011;30941;46.422;18.772;2023-05-07T13:07:53;6.22;;;3.60;;
45198;SDS011;30941;46.422;18.772;2023-05-07T13:10:22;5.85;;;3.70;;
45198;SDS011;30941;46.422;18.772;2023-05-07T13:12:48;6.25;;;3.42;;
45198;SDS011;30941;46.422;18.772;2023-05-07T13:15:13;4.53;;;3.70;;
45198;SDS011;30941;46.422;18.772;2023-05-07T13:17:39;5.22;;;3.05;;
45198;SDS011;30941;46.422;18.772;2023-05-07T13:20:04;4.00;;;3.25;;
45198;SDS011;30941;46.422;18.772;2023-05-07T13:22:30;7.22;;;3.30;;
45198;SDS011;30941;46.422;18.772;2023-05-07T13:24:56;4.00;;;3.00;;
45198;SDS011;30941;46.422;18.772;2023-05-07T13:27:22;4.03;;;3.15;;
45198;SDS011;30941;46.422;18.772;2023-05-07T13:29:47;5.28;;;3.70;;
45198;SDS011;30941;46.422;18.772;2023-05-07T13:32:12;3.63;;;3.00;;
45198;SDS011;30941;46.422;18.772;2023-05-07T13:34:38;4.07;;;3.05;;
45198;SDS011;30941;46.422;18.772;2023-05-07T13:37:03;4.13;;;3.10;;
45198;SDS011;30941;46.422;18.772;2023-05-07T13:39:28;4.57;;;2.97;;
45198;SDS011;30941;46.422;18.772;2023-05-07T13:41:54;4.63;;;2.97;;
45198;SDS011;30941;46.422;18.772;2023-05-07T13:44:19;4.00;;;3.00;;
45198;SDS011;30941;46.422;18.772;2023-05-07T13:46:45;4.10;;;2.80;;
45198;SDS011;30941;46.422;18.772;2023-05-07T13:49:11;4.82;;;2.90;;
45198;SDS011;30941;46.422;18.772;2023-05-07T13:51:37;6.10;;;3.70;;
45198;SDS011;30941;46.422;18.772;2023-05-07T13:54:02;5.45;;;3.22;;
45198;SDS011;30941;46.422;18.772;2023-05-07T13:56:28;5.10;;;3.45;;
45198;SDS011;30941;46.422;18.772;2023-05-07T13:58:55;3.33;;;2.80;;
45198;SDS011;30941;46.422;18.772;2023-05-07T14:01:21;3.40;;;2.50;;
45198;SDS011;30941;46.422;18.772;2023-05-07T14:03:46;4.80;;;3.00;;
45198;SDS011;30941;46.422;18.772;2023-05-07T14:06:11;3.70;;;2.88;;
45198;SDS011;30941;46.422;18.772;2023-05-07T14:08:37;3.67;;;2.80;;
45198;SDS011;30941;46.422;18.772;2023-05-07T14:11:02;4.95;;;3.03;;
45198;SDS011;30941;46.422;18.772;2023-05-07T14:13:28;4.43;;;2.83;;
45198;SDS011;30941;46.422;18.772;2023-05-07T14:15:55;4.38;;;2.90;;
45198;SDS011;30941;46.422;18.772;2023-05-07T14:18:21;3.63;;;2.50;;
45198;SDS011;30941;46.422;18.772;2023-05-07T14:20:46;3.58;;;2.25;;
45198;SDS011;30941;46.422;18.772;2023-05-07T14:23:13;3.53;;;2.50;;
45198;SDS011;30941;46.422;18.772;2023-05-07T14:25:39;4.88;;;2.28;;